createdAt,value
2018-05-15T00:00:10.401Z,28.90
2018-05-15T00:02:37.972Z,29.30
2018-05-15T00:05:05.602Z,32.30
2018-05-15T00:07:33.178Z,28.60
2018-05-15T00:10:00.809Z,37.83
2018-05-15T00:12:28.425Z,39.93
2018-05-15T00:14:56.000Z,40.97
2018-05-15T00:17:23.637Z,38.53
2018-05-15T00:19:51.264Z,29.90
2018-05-15T00:22:18.945Z,33.23
2018-05-15T00:24:46.511Z,30.40
2018-05-15T00:27:14.137Z,28.67
2018-05-15T00:29:41.721Z,30.07
2018-05-15T00:32:09.344Z,32.53
2018-05-15T00:34:36.978Z,39.17
2018-05-15T00:37:04.540Z,30.90
2018-05-15T00:39:32.233Z,32.07
2018-05-15T00:41:59.797Z,34.30
2018-05-15T00:44:27.360Z,37.90
2018-05-15T00:46:54.997Z,34.60
2018-05-15T00:49:22.624Z,35.10
2018-05-15T00:51:50.196Z,40.00
2018-05-15T00:54:17.825Z,35.97
2018-05-15T00:56:45.452Z,40.30
2018-05-15T00:59:13.016Z,38.67
2018-05-15T01:01:40.601Z,36.67
2018-05-15T01:04:08.180Z,43.80
2018-05-15T01:06:35.756Z,37.07
2018-05-15T01:09:03.477Z,33.67
2018-05-15T01:11:31.044Z,30.87
2018-05-15T01:13:58.664Z,35.53
2018-05-15T01:16:26.232Z,30.27
2018-05-15T01:18:53.857Z,36.23
2018-05-15T01:21:21.428Z,32.07
2018-05-15T01:23:49.049Z,32.20
2018-05-15T01:26:16.685Z,36.10
2018-05-15T01:28:44.252Z,31.90
2018-05-15T01:31:11.916Z,40.77
2018-05-15T01:33:39.545Z,37.27
2018-05-15T01:36:07.091Z,43.50
2018-05-15T01:38:34.736Z,35.27
2018-05-15T01:41:02.307Z,36.60
2018-05-15T01:43:29.930Z,42.80
2018-05-15T01:45:57.566Z,36.87
2018-05-15T01:48:25.203Z,43.03
2018-05-15T01:50:52.780Z,56.97
2018-05-15T01:53:20.351Z,63.17
2018-05-15T01:55:48.052Z,51.07
2018-05-15T01:58:15.608Z,43.90
2018-05-15T02:00:43.234Z,46.20
2018-05-15T02:03:10.813Z,37.03
2018-05-15T02:05:38.352Z,40.93
2018-05-15T02:08:05.991Z,40.20
2018-05-15T02:10:33.617Z,43.87
2018-05-15T02:13:01.227Z,42.70
2018-05-15T02:15:28.871Z,41.20
2018-05-15T02:17:56.432Z,42.50
2018-05-15T02:20:23.982Z,42.90
2018-05-15T02:22:51.616Z,43.67
2018-05-15T02:25:19.271Z,38.63
2018-05-15T02:27:46.834Z,35.10
2018-05-15T02:30:14.514Z,36.77
2018-05-15T02:32:42.077Z,36.53
2018-05-15T02:35:09.653Z,37.90
2018-05-15T02:37:37.241Z,53.20
2018-05-15T02:40:04.861Z,48.50
2018-05-15T02:42:32.442Z,44.70
2018-05-15T02:45:00.031Z,56.80
2018-05-15T02:47:27.657Z,53.80
2018-05-15T02:49:55.236Z,54.50
2018-05-15T02:52:22.832Z,46.10
2018-05-15T02:54:50.414Z,50.00
2018-05-15T02:57:17.981Z,46.23
2018-05-15T02:59:45.594Z,47.40
2018-05-15T03:02:13.157Z,45.97
2018-05-15T03:04:40.785Z,37.13
2018-05-15T03:07:08.356Z,41.33
2018-05-15T03:09:35.916Z,35.97
2018-05-15T03:12:03.548Z,40.67
2018-05-15T03:14:31.181Z,38.07
2018-05-15T03:16:58.831Z,36.20
2018-05-15T03:19:26.401Z,38.43
2018-05-15T03:21:54.021Z,39.30
2018-05-15T03:24:21.640Z,34.57
2018-05-15T03:26:49.202Z,30.93
2018-05-15T03:29:16.780Z,49.63
2018-05-15T03:31:44.427Z,32.67
2018-05-15T03:34:12.013Z,32.37
2018-05-15T03:36:39.584Z,33.03
2018-05-15T03:39:07.262Z,39.27
2018-05-15T03:41:34.824Z,31.90
2018-05-15T03:44:02.445Z,33.40
2018-05-15T03:46:30.077Z,32.83
2018-05-15T03:48:57.623Z,30.00
2018-05-15T03:51:25.173Z,27.33
2018-05-15T03:53:52.727Z,37.10
2018-05-15T03:56:20.329Z,51.60
2018-05-15T03:58:47.945Z,30.63
2018-05-15T04:01:27.397Z,33.83
2018-05-15T04:04:06.563Z,33.03
2018-05-15T04:06:45.923Z,30.90
2018-05-15T04:09:13.506Z,20.50
2018-05-15T04:11:41.125Z,20.67
2018-05-15T04:14:08.692Z,20.30
2018-05-15T04:16:36.257Z,46.30
2018-05-15T04:19:04.737Z,43.37
2018-05-15T04:21:32.314Z,16.73
2018-05-15T04:24:00.014Z,16.30
2018-05-15T04:26:27.582Z,12.83
2018-05-15T04:28:55.265Z,11.70
2018-05-15T04:31:22.889Z,11.10
2018-05-15T04:33:50.510Z,10.27
2018-05-15T04:36:18.077Z,13.37
2018-05-15T04:38:45.640Z,12.33
2018-05-15T04:41:13.265Z,11.50
2018-05-15T04:43:40.957Z,19.67
2018-05-15T04:46:08.601Z,11.20
2018-05-15T04:48:36.164Z,12.30
2018-05-15T04:51:03.710Z,12.10
2018-05-15T04:53:31.276Z,10.30
2018-05-15T04:55:58.832Z,11.10
2018-05-15T04:58:26.404Z,13.70
2018-05-15T05:00:53.960Z,9.90
2018-05-15T05:03:21.579Z,11.40
2018-05-15T05:05:49.139Z,16.03
2018-05-15T05:08:16.771Z,9.87
2018-05-15T05:10:44.398Z,10.77
2018-05-15T05:13:11.952Z,7.60
2018-05-15T05:15:39.581Z,9.60
2018-05-15T05:18:07.141Z,11.30
2018-05-15T05:20:34.737Z,7.90
2018-05-15T05:23:02.354Z,10.23
2018-05-15T05:25:29.973Z,8.70
2018-05-15T05:27:57.537Z,6.30
2018-05-15T05:30:25.103Z,8.80
2018-05-15T05:32:52.723Z,10.30
2018-05-15T05:35:20.277Z,7.40
2018-05-15T05:37:47.832Z,7.87
2018-05-15T05:40:15.405Z,8.63
2018-05-15T05:42:42.961Z,10.60
2018-05-15T05:45:10.576Z,11.00
2018-05-15T05:47:38.193Z,18.60
2018-05-15T05:50:05.812Z,13.47
2018-05-15T05:52:33.457Z,10.80
2018-05-15T05:55:01.009Z,8.50
2018-05-15T05:57:28.728Z,9.50
2018-05-15T05:59:56.290Z,11.80
2018-05-15T06:02:23.889Z,11.00
2018-05-15T06:04:51.449Z,6.80
2018-05-15T06:07:19.034Z,7.20
2018-05-15T06:09:46.669Z,13.70
2018-05-15T06:12:14.220Z,8.07
2018-05-15T06:14:41.844Z,7.30
2018-05-15T06:17:09.424Z,10.10
2018-05-15T06:19:37.033Z,9.10
2018-05-15T06:22:04.649Z,7.57
2018-05-15T06:24:32.214Z,7.83
2018-05-15T06:26:59.784Z,11.87
2018-05-15T06:29:27.403Z,7.00
2018-05-15T06:31:55.021Z,8.83
2018-05-15T06:34:22.581Z,9.57
2018-05-15T06:36:50.189Z,6.30
2018-05-15T06:39:17.745Z,9.53
2018-05-15T06:41:45.310Z,21.33
2018-05-15T06:44:12.934Z,5.83
2018-05-15T06:46:40.558Z,6.17
2018-05-15T06:49:08.238Z,8.97
2018-05-15T06:51:35.856Z,9.60
2018-05-15T06:54:03.483Z,7.20
2018-05-15T06:56:31.034Z,5.40
2018-05-15T06:58:58.645Z,8.30
2018-05-15T07:01:26.204Z,9.20
2018-05-15T07:03:53.775Z,9.33
2018-05-15T07:06:21.402Z,10.03
2018-05-15T07:08:48.962Z,9.53
2018-05-15T07:11:16.516Z,9.63
2018-05-15T07:13:44.081Z,13.87
2018-05-15T07:16:11.649Z,7.93
2018-05-15T07:18:39.212Z,7.50
2018-05-15T07:21:06.757Z,14.00
2018-05-15T07:23:34.365Z,8.20
2018-05-15T07:26:01.926Z,13.53
2018-05-15T07:28:29.485Z,6.27
2018-05-15T07:30:57.114Z,5.23
2018-05-15T07:33:24.739Z,5.87
2018-05-15T07:35:52.304Z,5.70
2018-05-15T07:38:19.865Z,12.23
2018-05-15T07:40:47.481Z,8.90
2018-05-15T07:43:15.097Z,4.90
2018-05-15T07:45:42.655Z,10.40
2018-05-15T07:48:10.232Z,5.90
2018-05-15T07:50:37.787Z,7.40
2018-05-15T07:53:05.404Z,13.50
2018-05-15T07:55:32.964Z,8.67
2018-05-15T07:58:00.584Z,10.73
2018-05-15T08:00:28.200Z,9.57
2018-05-15T08:02:55.756Z,6.10
2018-05-15T08:05:23.324Z,10.70
2018-05-15T08:07:50.948Z,12.00
2018-05-15T08:10:18.520Z,6.57
2018-05-15T08:12:46.080Z,4.40
2018-05-15T08:15:13.767Z,5.00
2018-05-15T08:17:41.382Z,5.40
2018-05-15T08:20:08.938Z,6.10
2018-05-15T08:22:36.506Z,8.93
2018-05-15T08:25:04.078Z,11.50
2018-05-15T08:27:31.662Z,7.07
2018-05-15T08:29:59.216Z,6.40
2018-05-15T08:32:26.837Z,5.60
2018-05-15T08:34:54.400Z,4.67
2018-05-15T08:37:21.968Z,9.17
2018-05-15T08:39:49.559Z,3.93
2018-05-15T08:42:17.098Z,5.00
2018-05-15T08:44:44.675Z,9.67
2018-05-15T08:47:12.298Z,13.50
2018-05-15T08:49:39.968Z,4.10
2018-05-15T08:52:07.525Z,4.10
2018-05-15T08:54:35.084Z,12.20
2018-05-15T08:57:02.654Z,14.13
2018-05-15T08:59:30.215Z,5.33
2018-05-15T09:01:57.777Z,7.00
2018-05-15T09:04:25.339Z,7.33
2018-05-15T09:06:52.952Z,4.50
2018-05-15T09:09:20.504Z,6.33
2018-05-15T09:11:48.163Z,4.13
2018-05-15T09:14:15.734Z,3.60
2018-05-15T09:16:43.288Z,5.17
2018-05-15T09:19:10.881Z,5.23
2018-05-15T09:21:38.478Z,6.40
2018-05-15T09:24:06.097Z,4.87
2018-05-15T09:26:33.652Z,4.60
2018-05-15T09:29:01.265Z,4.50
2018-05-15T09:31:28.889Z,6.40
2018-05-15T09:33:56.446Z,3.80
2018-05-15T09:36:24.106Z,4.83
2018-05-15T09:38:51.597Z,7.33
2018-05-15T09:41:19.358Z,5.67
2018-05-15T09:44:01.744Z,6.60
2018-05-15T09:46:29.368Z,14.63
2018-05-15T09:48:56.927Z,6.43
2018-05-15T09:51:24.555Z,5.50
2018-05-15T09:53:52.130Z,5.43
2018-05-15T09:56:19.683Z,6.97
2018-05-15T09:58:47.254Z,11.53
2018-05-15T10:01:14.869Z,5.10
2018-05-15T10:03:42.444Z,5.00
2018-05-15T10:06:10.061Z,9.30
2018-05-15T10:08:37.676Z,6.03
2018-05-15T10:11:05.238Z,9.10
2018-05-15T10:13:32.793Z,7.80
2018-05-15T10:16:00.416Z,5.17
2018-05-15T10:18:27.977Z,6.60
2018-05-15T10:20:55.540Z,8.43
2018-05-15T10:23:23.166Z,20.30
2018-05-15T10:25:50.849Z,11.90
2018-05-15T10:28:18.404Z,5.33
2018-05-15T10:30:45.961Z,6.13
2018-05-15T10:33:13.528Z,6.93
2018-05-15T10:35:41.152Z,5.50
2018-05-15T10:38:08.765Z,6.43
2018-05-15T10:40:36.380Z,5.80
2018-05-15T10:43:03.991Z,6.37
2018-05-15T10:45:31.662Z,10.80
2018-05-15T10:47:59.231Z,19.13
2018-05-15T10:50:26.810Z,10.00
2018-05-15T10:52:54.390Z,12.50
2018-05-15T10:55:21.960Z,10.30
2018-05-15T10:57:49.529Z,5.00
2018-05-15T11:00:17.140Z,8.98
2018-05-15T11:02:44.757Z,7.50
2018-05-15T11:05:12.320Z,7.00
2018-05-15T11:07:39.957Z,8.20
2018-05-15T11:10:07.558Z,6.10
2018-05-15T11:12:35.244Z,6.45
2018-05-15T11:15:02.795Z,10.50
2018-05-15T11:17:30.464Z,6.12
2018-05-15T11:20:09.765Z,5.07
2018-05-15T11:22:49.282Z,5.40
2018-05-15T11:25:16.840Z,10.33
2018-05-15T11:27:44.457Z,8.00
2018-05-15T11:30:12.037Z,14.52
2018-05-15T11:32:39.596Z,6.82
2018-05-15T11:35:07.146Z,6.65
2018-05-15T11:37:34.772Z,6.85
2018-05-15T11:40:02.385Z,7.32
2018-05-15T11:42:29.943Z,7.90
2018-05-15T11:44:57.500Z,5.07
2018-05-15T11:47:25.198Z,4.65
2018-05-15T11:49:53.831Z,6.55
2018-05-15T11:52:21.305Z,4.75
2018-05-15T11:54:47.917Z,8.13
2018-05-15T11:57:15.532Z,8.65
2018-05-15T11:59:43.109Z,5.90
2018-05-15T12:02:10.666Z,7.15
2018-05-15T12:04:38.246Z,4.35
2018-05-15T12:07:05.887Z,10.73
2018-05-15T12:09:33.526Z,10.98
2018-05-15T12:12:01.145Z,6.85
2018-05-15T12:14:28.714Z,4.53
2018-05-15T12:16:56.289Z,7.55
2018-05-15T12:19:23.841Z,4.07
2018-05-15T12:21:51.403Z,7.07
2018-05-15T12:24:18.960Z,8.77
2018-05-15T12:26:46.598Z,5.78
2018-05-15T12:29:14.218Z,6.28
2018-05-15T12:31:41.879Z,4.87
2018-05-15T12:34:09.519Z,5.15
2018-05-15T12:36:37.072Z,5.43
2018-05-15T12:39:04.717Z,6.25
2018-05-15T12:41:32.370Z,8.23
2018-05-15T12:43:59.895Z,6.87
2018-05-15T12:46:27.515Z,5.80
2018-05-15T12:48:55.085Z,6.93
2018-05-15T12:51:22.652Z,5.47
2018-05-15T12:53:50.213Z,5.17
2018-05-15T12:56:17.817Z,7.60
2018-05-15T12:58:45.380Z,11.77
2018-05-15T13:01:12.932Z,4.17
2018-05-15T13:03:40.493Z,6.18
2018-05-15T13:06:08.053Z,7.28
2018-05-15T13:08:35.733Z,5.85
2018-05-15T13:11:03.293Z,12.45
2018-05-15T13:13:30.853Z,4.50
2018-05-15T13:15:58.477Z,6.75
2018-05-15T13:18:26.115Z,4.78
2018-05-15T13:20:53.816Z,5.55
2018-05-15T13:23:21.348Z,16.30
2018-05-15T13:25:48.904Z,3.87
2018-05-15T13:28:16.471Z,3.58
2018-05-15T13:30:44.077Z,10.18
2018-05-15T13:33:11.637Z,6.18
2018-05-15T13:35:39.200Z,13.23
2018-05-15T13:38:06.804Z,5.40
2018-05-15T13:40:34.367Z,10.38
2018-05-15T13:43:01.985Z,6.30
2018-05-15T13:45:29.620Z,8.55
2018-05-15T13:47:57.273Z,4.22
2018-05-15T13:50:24.894Z,9.18
2018-05-15T13:52:52.450Z,5.25
2018-05-15T13:55:20.064Z,5.80
2018-05-15T13:57:47.639Z,8.90
2018-05-15T14:00:15.193Z,6.70
2018-05-15T14:02:42.821Z,5.53
2018-05-15T14:05:10.376Z,4.57
2018-05-15T14:07:37.988Z,7.27
2018-05-15T14:10:05.549Z,7.50
2018-05-15T14:12:33.155Z,10.63
2018-05-15T14:15:00.712Z,16.03
2018-05-15T14:17:28.271Z,7.17
2018-05-15T14:19:55.836Z,7.53
2018-05-15T14:22:23.401Z,10.50
2018-05-15T14:24:51.019Z,5.00
2018-05-15T14:27:18.577Z,9.53
2018-05-15T14:29:46.189Z,7.40
2018-05-15T14:32:13.760Z,12.10
2018-05-15T14:34:41.332Z,9.20
2018-05-15T14:37:08.961Z,9.57
2018-05-15T14:39:36.558Z,7.53
2018-05-15T14:42:15.998Z,5.00
2018-05-15T14:44:43.617Z,5.50
2018-05-15T14:47:11.241Z,5.20
2018-05-15T14:49:38.796Z,9.50
2018-05-15T14:52:06.409Z,13.27
2018-05-15T14:54:34.163Z,7.50
2018-05-15T14:57:01.720Z,9.40
2018-05-15T14:59:29.331Z,6.63
2018-05-15T15:01:56.963Z,6.30
2018-05-15T15:04:24.530Z,6.73
2018-05-15T15:06:52.357Z,5.27
2018-05-15T15:09:19.956Z,5.37
2018-05-15T15:11:48.448Z,9.27
2018-05-15T15:14:16.001Z,8.20
2018-05-15T15:16:43.630Z,11.90
2018-05-15T15:19:11.203Z,8.93
2018-05-15T15:21:38.775Z,11.73
2018-05-15T15:24:06.340Z,5.13
2018-05-15T15:26:33.967Z,4.40
2018-05-15T15:29:01.532Z,8.50
2018-05-15T15:31:29.144Z,7.43
2018-05-15T15:33:57.004Z,7.10
2018-05-15T15:36:24.698Z,9.50
2018-05-15T15:38:52.239Z,8.43
2018-05-15T15:41:19.812Z,7.57
2018-05-15T15:43:47.401Z,4.53
2018-05-15T15:46:15.113Z,6.83
2018-05-15T15:48:42.677Z,9.73
2018-05-15T15:51:10.293Z,5.33
2018-05-15T15:53:37.904Z,11.83
2018-05-15T15:56:05.544Z,4.73
2018-05-15T15:58:33.214Z,9.40
2018-05-15T16:01:00.829Z,7.40
2018-05-15T16:03:28.384Z,8.83
2018-05-15T16:05:55.930Z,5.13
2018-05-15T16:08:23.541Z,6.23
2018-05-15T16:10:51.108Z,5.53
2018-05-15T16:13:18.724Z,6.27
2018-05-15T16:15:46.396Z,5.77
2018-05-15T16:18:13.966Z,10.20
2018-05-15T16:20:41.581Z,7.10
2018-05-15T16:23:09.211Z,5.47
2018-05-15T16:25:36.838Z,12.00
2018-05-15T16:28:04.513Z,6.43
2018-05-15T16:30:32.134Z,11.23
2018-05-15T16:32:59.744Z,8.97
2018-05-15T16:35:27.316Z,7.20
2018-05-15T16:37:54.872Z,7.50
2018-05-15T16:40:22.438Z,5.60
2018-05-15T16:42:50.000Z,5.47
2018-05-15T16:45:17.625Z,5.33
2018-05-15T16:47:45.266Z,10.30
2018-05-15T16:50:12.896Z,14.00
2018-05-15T16:52:40.528Z,7.83
2018-05-15T16:55:08.036Z,9.43
2018-05-15T16:57:35.598Z,9.10
2018-05-15T17:00:03.269Z,7.83
2018-05-15T17:02:30.953Z,7.13
2018-05-15T17:04:58.516Z,5.70
2018-05-15T17:07:26.101Z,8.87
2018-05-15T17:09:53.732Z,13.50
2018-05-15T17:12:21.288Z,9.80
2018-05-15T17:14:48.910Z,11.33
2018-05-15T17:17:16.535Z,11.83
2018-05-15T17:19:44.097Z,8.63
2018-05-15T17:22:11.679Z,11.60
2018-05-15T17:24:39.245Z,11.73
2018-05-15T17:27:06.917Z,8.43
2018-05-15T17:29:34.467Z,5.50
2018-05-15T17:32:02.020Z,7.90
2018-05-15T17:34:29.591Z,10.57
2018-05-15T17:36:57.153Z,10.27
2018-05-15T17:39:24.830Z,6.87
2018-05-15T17:41:52.384Z,9.90
2018-05-15T17:44:20.005Z,8.77
2018-05-15T17:46:47.580Z,10.03
2018-05-15T17:49:15.159Z,9.63
2018-05-15T17:51:42.720Z,9.97
2018-05-15T17:54:10.272Z,5.10
2018-05-15T17:56:37.880Z,9.27
2018-05-15T17:59:05.527Z,12.40
2018-05-15T18:01:33.093Z,9.93
2018-05-15T18:04:00.717Z,13.90
2018-05-15T18:06:28.291Z,8.50
2018-05-15T18:08:55.860Z,12.40
2018-05-15T18:11:23.425Z,4.80
2018-05-15T18:13:51.040Z,7.53
2018-05-15T18:16:18.606Z,12.90
2018-05-15T18:18:46.224Z,10.40
2018-05-15T18:21:13.864Z,6.27
2018-05-15T18:23:41.493Z,14.53
2018-05-15T18:26:09.187Z,12.00
2018-05-15T18:28:36.743Z,6.20
2018-05-15T18:31:04.417Z,11.70
2018-05-15T18:33:32.038Z,11.43
2018-05-15T18:35:59.601Z,7.17
2018-05-15T18:38:27.168Z,13.10
2018-05-15T18:40:54.720Z,6.50
2018-05-15T18:43:22.292Z,9.63
2018-05-15T18:45:49.921Z,8.23
2018-05-15T18:48:17.540Z,8.53
2018-05-15T18:50:45.157Z,7.60
2018-05-15T18:53:12.721Z,7.70
2018-05-15T18:55:40.355Z,8.33
2018-05-15T18:58:07.917Z,9.90
2018-05-15T19:00:35.556Z,8.47
2018-05-15T19:03:03.120Z,13.60
2018-05-15T19:05:30.746Z,17.53
2018-05-15T19:07:58.401Z,6.93
2018-05-15T19:10:26.043Z,7.10
2018-05-15T19:12:53.588Z,8.20
2018-05-15T19:15:21.156Z,11.80
2018-05-15T19:17:48.801Z,19.80
2018-05-15T19:20:16.366Z,17.50
2018-05-15T19:22:43.985Z,12.73
2018-05-15T19:25:11.549Z,13.87
2018-05-15T19:27:39.090Z,10.93
2018-05-15T19:30:06.649Z,8.27
2018-05-15T19:32:39.096Z,15.60
2018-05-15T19:35:07.589Z,11.43
2018-05-15T19:37:35.149Z,8.80
2018-05-15T19:40:08.336Z,9.87
2018-05-15T19:42:36.013Z,8.73
2018-05-15T19:45:03.698Z,19.70
2018-05-15T19:47:31.319Z,7.13
2018-05-15T19:49:58.872Z,7.50
2018-05-15T19:52:26.443Z,7.43
2018-05-15T19:54:54.011Z,6.47
2018-05-15T19:57:21.630Z,10.10
2018-05-15T19:59:49.261Z,7.07
2018-05-15T20:02:16.820Z,16.53
2018-05-15T20:04:44.392Z,10.40
2018-05-15T20:07:12.023Z,7.27
2018-05-15T20:09:39.657Z,5.73
2018-05-15T20:12:07.259Z,6.97
2018-05-15T20:14:34.876Z,11.90
2018-05-15T20:17:02.432Z,7.27
2018-05-15T20:19:29.992Z,10.50
2018-05-15T20:21:57.562Z,9.23
2018-05-15T20:24:25.124Z,24.07
2018-05-15T20:26:52.751Z,8.60
2018-05-15T20:29:20.382Z,10.67
2018-05-15T20:31:48.060Z,16.60
2018-05-15T20:34:15.681Z,7.13
2018-05-15T20:36:43.241Z,11.33
2018-05-15T20:39:10.868Z,14.40
2018-05-15T20:41:38.436Z,10.70
2018-05-15T20:44:06.064Z,16.60
2018-05-15T20:46:33.652Z,11.87
2018-05-15T20:49:01.327Z,21.83
2018-05-15T20:51:28.888Z,9.50
2018-05-15T20:53:56.527Z,12.20
2018-05-15T20:56:24.104Z,11.10
2018-05-15T20:58:51.720Z,9.77
2018-05-15T21:01:19.348Z,7.23
2018-05-15T21:03:46.908Z,19.53
2018-05-15T21:06:14.584Z,10.50
2018-05-15T21:08:42.209Z,10.67
2018-05-15T21:11:09.825Z,8.77
2018-05-15T21:13:37.380Z,14.63
2018-05-15T21:16:04.942Z,5.97
2018-05-15T21:18:32.509Z,7.40
2018-05-15T21:21:00.073Z,12.80
2018-05-15T21:23:27.730Z,7.40
2018-05-15T21:25:55.279Z,6.97
2018-05-15T21:28:22.860Z,10.57
2018-05-15T21:30:50.428Z,10.50
2018-05-15T21:33:17.988Z,10.70
2018-05-15T21:35:45.561Z,12.70
2018-05-15T21:38:13.122Z,18.73
2018-05-15T21:40:40.732Z,10.20
2018-05-15T21:43:08.292Z,7.70
2018-05-15T21:45:35.921Z,12.90
2018-05-15T21:48:03.502Z,13.90
2018-05-15T21:50:31.114Z,7.80
2018-05-15T21:52:58.680Z,8.47
2018-05-15T21:55:26.244Z,19.30
2018-05-15T21:57:53.943Z,8.73
2018-05-15T22:00:21.560Z,11.63
2018-05-15T22:02:49.219Z,10.17
2018-05-15T22:05:16.853Z,13.13
2018-05-15T22:07:44.412Z,16.93
2018-05-15T22:10:12.049Z,12.97
2018-05-15T22:12:51.477Z,10.03
2018-05-15T22:15:30.949Z,8.10
2018-05-15T22:18:10.204Z,9.33
2018-05-15T22:20:49.632Z,11.73
2018-05-15T22:23:16.650Z,8.97
2018-05-15T22:25:44.317Z,14.30
2018-05-15T22:28:11.929Z,10.47
2018-05-15T22:30:39.488Z,8.40
2018-05-15T22:33:07.126Z,15.83
2018-05-15T22:35:34.679Z,6.23
2018-05-15T22:38:02.254Z,7.90
2018-05-15T22:40:29.827Z,7.73
2018-05-15T22:42:57.436Z,9.40
2018-05-15T22:45:25.032Z,6.27
2018-05-15T22:47:52.598Z,8.77
2018-05-15T22:50:20.172Z,12.77
2018-05-15T22:52:47.788Z,11.30
2018-05-15T22:55:15.413Z,7.03
2018-05-15T22:57:42.972Z,10.93
2018-05-15T23:00:10.638Z,7.90
2018-05-15T23:02:38.257Z,7.83
2018-05-15T23:05:05.823Z,7.40
2018-05-15T23:07:33.388Z,7.53
2018-05-15T23:10:01.111Z,6.50
2018-05-15T23:12:28.752Z,14.53
2018-05-15T23:14:56.369Z,9.07
2018-05-15T23:17:23.988Z,18.63
2018-05-15T23:19:51.622Z,13.23
2018-05-15T23:22:30.892Z,10.30
2018-05-15T23:24:58.453Z,15.93
2018-05-15T23:27:26.084Z,8.73
2018-05-15T23:29:53.652Z,11.27
2018-05-15T23:32:21.288Z,15.00
2018-05-15T23:34:48.880Z,8.87
2018-05-15T23:37:16.444Z,10.70
2018-05-15T23:39:44.117Z,7.30
2018-05-15T23:42:11.733Z,10.47
2018-05-15T23:44:39.297Z,7.90
2018-05-15T23:47:06.928Z,10.50
2018-05-15T23:49:34.493Z,13.43
2018-05-15T23:52:02.164Z,13.93
2018-05-15T23:54:29.729Z,7.77
2018-05-15T23:56:57.349Z,10.47
2018-05-15T23:59:24.920Z,7.43
